Time;durP1;ratioP1;P1;durP2;ratioP2;P2;SDS_P1;SDS_P2;PMS_P1;PMS_P2;Temp;Humidity;BMP_temperature;BMP_pressure;BME280_temperature;BME280_humidity;BME280_pressure;Samples;Min_cycle;Max_cycle;Signal;HPM_P1;HPM_P2
2022/09/20 00:00:44;;;;;;;2.83;0.45;;;11.80;99.90;;;;;;5024617;28;20041;-68
2022/09/20 00:03:11;;;;;;;3.33;0.28;;;11.80;99.90;;;;;;5027237;28;20082;-69
2022/09/20 00:05:38;;;;;;;2.85;0.60;;;11.80;99.90;;;;;;5028544;28;20038;-72
2022/09/20 00:08:06;;;;;;;3.40;0.50;;;11.80;99.90;;;;;;5029608;28;20053;-73
2022/09/20 00:10:35;;;;;;;2.47;0.73;;;11.90;99.90;;;;;;5028008;28;20034;-69
2022/09/20 00:13:01;;;;;;;2.97;0.50;;;11.90;99.90;;;;;;5029119;28;20516;-72
2022/09/20 00:15:28;;;;;;;4.25;0.30;;;11.90;99.90;;;;;;5032504;28;20401;-71
2022/09/20 00:17:54;;;;;;;4.32;0.20;;;11.90;99.90;;;;;;5044191;28;20064;-71
2022/09/20 00:20:19;;;;;;;3.28;0.32;;;11.90;99.90;;;;;;5045920;28;20529;-71
2022/09/20 00:22:48;;;;;;;2.88;1.05;;;11.90;99.90;;;;;;5025556;28;20034;-72
2022/09/20 00:25:18;;;;;;;3.10;0.47;;;11.90;99.90;;;;;;5043049;28;20084;-72
2022/09/20 00:27:44;;;;;;;4.18;0.22;;;11.90;99.90;;;;;;5042338;28;20042;-72
2022/09/20 00:30:11;;;;;;;4.43;0.30;;;11.90;99.90;;;;;;5035220;28;20064;-72
2022/09/20 00:32:37;;;;;;;1.88;0.65;;;11.90;99.90;;;;;;5032988;28;20033;-72
2022/09/20 00:35:06;;;;;;;6.00;0.57;;;11.80;99.90;;;;;;5033063;28;20617;-71
2022/09/20 00:37:33;;;;;;;3.80;0.45;;;11.80;99.90;;;;;;5032708;28;20044;-72
2022/09/20 00:39:59;;;;;;;4.43;0.45;;;11.80;99.90;;;;;;5031616;28;20068;-72
2022/09/20 00:42:29;;;;;;;4.78;0.82;;;11.80;99.90;;;;;;5030506;28;20056;-70
2022/09/20 00:45:00;;;;;;;5.65;0.55;;;11.80;99.90;;;;;;5031038;28;20060;-70
2022/09/20 00:47:41;;;;;;;2.63;0.60;;;11.70;99.90;;;;;;5030047;28;20034;-71
2022/09/20 00:50:19;;;;;;;1.80;0.40;;;11.70;99.90;;;;;;5030217;28;20033;-73
2022/09/20 00:52:47;;;;;;;3.03;0.52;;;11.70;99.90;;;;;;5023235;28;20033;-72
2022/09/20 00:55:14;;;;;;;6.30;0.82;;;11.70;99.90;;;;;;5029564;28;20160;-72
2022/09/20 00:57:41;;;;;;;3.03;0.50;;;11.70;99.90;;;;;;5029195;28;20508;-69
2022/09/20 01:00:09;;;;;;;1.73;0.32;;;11.80;99.90;;;;;;5029145;28;20410;-69
2022/09/20 01:02:45;;;;;;;1.60;0.45;;;11.80;99.90;;;;;;5028333;28;20088;-72
2022/09/20 01:05:13;;;;;;;3.67;0.50;;;11.80;99.90;;;;;;5029092;28;20063;-69
2022/09/20 01:07:41;;;;;;;3.05;0.30;;;11.80;99.90;;;;;;5029087;28;20037;-71
2022/09/20 01:10:07;;;;;;;6.65;0.70;;;11.80;99.90;;;;;;5029033;28;20033;-70
2022/09/20 01:12:34;;;;;;;4.03;0.82;;;11.80;99.90;;;;;;5028641;28;20072;-70
2022/09/20 01:15:03;;;;;;;1.67;0.40;;;11.80;99.90;;;;;;5024929;28;20025;-72
2022/09/20 01:17:31;;;;;;;1.85;0.80;;;11.80;99.90;;;;;;5029698;28;20033;-72
2022/09/20 01:20:03;;;;;;;4.95;0.70;;;11.80;99.90;;;;;;5030147;28;20068;-71
2022/09/20 01:22:49;;;;;;;1.35;0.32;;;11.80;99.90;;;;;;5027870;28;20033;-72
2022/09/20 01:25:28;;;;;;;4.22;1.00;;;11.90;99.90;;;;;;5025310;28;20041;-71
2022/09/20 01:27:53;;;;;;;4.25;0.60;;;11.90;99.90;;;;;;5024524;28;20069;-71
2022/09/20 01:30:23;;;;;;;2.13;0.50;;;11.90;99.90;;;;;;5028495;28;20088;-71
2022/09/20 01:32:57;;;;;;;2.85;0.52;;;11.90;99.90;;;;;;5028578;28;20033;-73
2022/09/20 01:35:27;;;;;;;3.58;0.60;;;11.90;99.90;;;;;;5035796;28;20029;-72
2022/09/20 01:38:19;;;;;;;1.50;0.50;;;11.90;99.90;;;;;;5035945;28;20040;-71
2022/09/20 01:41:11;;;;;;;3.85;1.10;;;11.90;99.90;;;;;;5031909;28;20041;-70
2022/09/20 01:43:51;;;;;;;2.20;0.47;;;11.90;99.90;;;;;;5035216;28;20037;-73
2022/09/20 01:46:34;;;;;;;3.78;0.70;;;11.90;99.90;;;;;;5029794;28;20045;-72
2022/09/20 01:49:27;;;;;;;2.42;0.60;;;11.90;99.90;;;;;;5028027;28;20076;-70
2022/09/20 01:52:17;;;;;;;2.85;0.45;;;11.90;99.90;;;;;;5024984;28;20524;-72
2022/09/20 01:55:14;;;;;;;2.67;0.50;;;11.90;99.90;;;;;;5022183;28;20048;-70
2022/09/20 01:58:01;;;;;;;4.45;0.60;;;11.80;99.90;;;;;;5023872;28;20341;-72
2022/09/20 02:00:42;;;;;;;1.20;0.40;;;11.80;99.90;;;;;;5024345;28;20034;-70
2022/09/20 02:03:17;;;;;;;2.83;0.35;;;11.80;99.90;;;;;;5027816;28;20511;-71
2022/09/20 02:06:02;;;;;;;4.22;0.45;;;11.80;99.90;;;;;;5023201;28;20076;-70
2022/09/20 02:08:46;;;;;;;4.07;0.52;;;11.80;99.90;;;;;;5022982;28;20095;-71
2022/09/20 02:11:18;;;;;;;3.80;0.70;;;11.80;99.90;;;;;;5024928;28;20037;-68
2022/09/20 02:14:03;;;;;;;2.22;0.55;;;11.80;99.90;;;;;;5031900;28;20084;-72
2022/09/20 02:16:47;;;;;;;3.67;0.88;;;11.80;99.90;;;;;;5035611;28;20568;-73
2022/09/20 02:19:45;;;;;;;0.98;0.40;;;11.70;99.90;;;;;;5025770;28;20029;-69
2022/09/20 02:22:32;;;;;;;3.42;0.40;;;11.70;99.90;;;;;;5024432;28;20176;-71
2022/09/20 02:25:07;;;;;;;3.78;0.57;;;11.70;99.90;;;;;;5026367;28;20060;-70
2022/09/20 02:27:47;;;;;;;0.77;0.30;;;11.60;99.90;;;;;;5028626;28;20029;-71
2022/09/20 02:30:13;;;;;;;;;;;11.60;99.90;;;;;;5024156;28;20038;-69
2022/09/20 02:32:57;;;;;;;6.75;0.70;;;11.60;99.90;;;;;;5028129;28;19924;-71
2022/09/20 02:35:50;;;;;;;3.67;1.20;;;11.60;99.90;;;;;;5026018;28;20033;-71
2022/09/20 02:38:38;;;;;;;3.80;1.10;;;11.60;99.90;;;;;;5023652;28;20107;-71
2022/09/20 02:41:15;;;;;;;2.97;0.70;;;11.60;99.90;;;;;;5027927;28;20041;-71
2022/09/20 02:43:55;;;;;;;4.20;0.50;;;11.60;99.90;;;;;;5024056;28;20550;-69
2022/09/20 02:46:32;;;;;;;4.33;0.53;;;11.60;99.90;;;;;;5025304;28;20146;-71
2022/09/20 02:49:07;;;;;;;5.63;1.42;;;11.60;99.90;;;;;;5039103;28;20045;-70
2022/09/20 02:52:06;;;;;;;4.35;0.80;;;11.60;99.90;;;;;;5037640;28;20041;-72
2022/09/20 02:54:57;;;;;;;4.10;0.60;;;11.70;99.90;;;;;;5029354;28;20046;-71
2022/09/20 02:57:41;;;;;;;1.05;0.50;;;11.70;99.90;;;;;;5030603;28;20037;-72
2022/09/20 03:00:13;;;;;;;2.40;0.60;;;11.60;99.90;;;;;;5027138;28;20075;-71
2022/09/20 03:03:08;;;;;;;2.30;0.57;;;11.70;99.90;;;;;;5024440;28;20124;-71
2022/09/20 03:06:21;;;;;;;2.20;0.80;;;11.60;99.90;;;;;;5019776;28;20541;-71
2022/09/20 03:08:57;;;;;;;3.88;0.65;;;11.60;99.90;;;;;;5010858;28;20037;-71
2022/09/20 03:11:46;;;;;;;2.67;0.85;;;11.60;99.90;;;;;;5018095;28;20033;-71
2022/09/20 03:14:29;;;;;;;3.50;0.70;;;11.60;99.90;;;;;;5027958;28;20048;-71
2022/09/20 03:17:16;;;;;;;7.90;0.65;;;11.60;99.90;;;;;;5041243;28;20056;-74
2022/09/20 03:20:06;;;;;;;1.67;0.65;;;11.50;99.90;;;;;;5028304;28;20491;-71
2022/09/20 03:22:49;;;;;;;5.72;0.75;;;11.40;99.90;;;;;;5026885;28;20040;-71
2022/09/20 03:25:34;;;;;;;1.65;0.70;;;11.40;99.90;;;;;;5017566;28;20440;-72
2022/09/20 03:28:08;;;;;;;2.63;0.45;;;11.40;99.90;;;;;;5026070;28;20375;-69
2022/09/20 03:30:55;;;;;;;4.88;0.75;;;11.40;99.90;;;;;;5027669;28;20052;-71
2022/09/20 03:33:26;;;;;;;6.88;1.45;;;11.40;99.90;;;;;;5026081;28;20029;-71
2022/09/20 03:36:10;;;;;;;4.78;1.30;;;11.40;99.90;;;;;;5027380;28;20030;-71
2022/09/20 03:38:53;;;;;;;2.60;0.60;;;11.50;99.90;;;;;;5025806;28;20029;-71
2022/09/20 03:41:30;;;;;;;3.13;0.73;;;11.50;99.90;;;;;;5029656;28;20040;-72
2022/09/20 03:43:55;;;;;;;5.43;1.05;;;11.50;99.90;;;;;;5029479;28;20099;-72
2022/09/20 03:46:28;;;;;;;5.07;0.75;;;11.60;99.90;;;;;;5031806;28;20671;-71
2022/09/20 03:49:30;;;;;;;5.10;0.70;;;11.60;99.90;;;;;;5019965;28;20029;-70
2022/09/20 03:52:16;;;;;;;2.60;0.95;;;11.60;99.90;;;;;;5030503;28;20057;-72
2022/09/20 03:54:45;;;;;;;3.20;0.70;;;11.60;99.90;;;;;;5027566;28;20513;-72
2022/09/20 03:57:30;;;;;;;4.05;1.10;;;11.70;99.90;;;;;;5031441;28;20053;-71
2022/09/20 04:00:19;;;;;;;1.65;0.50;;;11.70;99.90;;;;;;5040554;28;20127;-71
2022/09/20 04:03:11;;;;;;;2.47;0.95;;;11.60;99.90;;;;;;5029530;28;22081;-70
2022/09/20 04:05:44;;;;;;;1.88;0.75;;;11.60;99.90;;;;;;5027727;28;20180;-71
2022/09/20 04:08:25;;;;;;;3.40;0.73;;;11.70;99.90;;;;;;5027870;28;20065;-71
2022/09/20 04:11:14;;;;;;;3.15;0.80;;;11.70;99.90;;;;;;5038010;28;20172;-74
2022/09/20 04:14:10;;;;;;;4.95;0.80;;;11.70;99.90;;;;;;5032896;28;20126;-71
2022/09/20 04:16:57;;;;;;;2.00;0.50;;;11.70;99.90;;;;;;5031779;28;20041;-72
2022/09/20 04:19:40;;;;;;;8.45;1.48;;;11.70;99.90;;;;;;5031010;28;20544;-70
2022/09/20 04:22:07;;;;;;;1.33;0.65;;;11.70;99.90;;;;;;5027161;28;20037;-72
2022/09/20 04:25:11;;;;;;;3.83;1.00;;;11.70;99.90;;;;;;5030468;28;20030;-71
2022/09/20 04:27:50;;;;;;;3.53;1.20;;;11.70;99.90;;;;;;5027934;28;20038;-71
2022/09/20 04:30:20;;;;;;;2.00;0.70;;;11.70;99.90;;;;;;5034806;28;20116;-70
2022/09/20 04:33:00;;;;;;;3.70;1.20;;;11.70;99.90;;;;;;5051900;28;20152;-73
2022/09/20 04:38:39;;;;;;;7.55;1.10;;;11.60;99.90;;;;;;5045104;28;20121;-71
2022/09/20 04:41:20;;;;;;;4.15;0.80;;;11.60;99.90;;;;;;5037132;28;20075;-73
2022/09/20 04:44:20;;;;;;;4.22;0.93;;;11.60;99.90;;;;;;5034268;28;20038;-69
2022/09/20 04:46:58;;;;;;;6.35;1.65;;;11.60;99.90;;;;;;5035626;28;20101;-71
2022/09/20 04:50:01;;;;;;;8.95;1.00;;;11.60;99.90;;;;;;5037670;28;20079;-72
2022/09/20 04:52:52;;;;;;;3.85;0.98;;;11.60;99.90;;;;;;5035957;28;20045;-70
2022/09/20 04:55:36;;;;;;;;;;;11.60;99.90;;;;;;5031958;28;20045;-71
2022/09/20 04:58:26;;;;;;;6.15;0.93;;;11.70;99.90;;;;;;5025506;28;19963;-68
2022/09/20 05:01:09;;;;;;;5.38;1.58;;;11.70;99.90;;;;;;5029273;28;20045;-71
2022/09/20 05:04:02;;;;;;;4.28;0.80;;;11.70;99.90;;;;;;5026332;28;20095;-70
2022/09/20 05:06:40;;;;;;;6.20;1.15;;;11.70;99.90;;;;;;5032488;28;20064;-71
2022/09/20 05:09:32;;;;;;;3.15;0.95;;;11.70;99.90;;;;;;5032052;28;20129;-73
2022/09/20 05:12:15;;;;;;;2.67;0.65;;;11.70;99.90;;;;;;5038993;28;20033;-72
2022/09/20 05:14:52;;;;;;;5.68;1.95;;;11.70;99.90;;;;;;5023257;28;20079;-71
2022/09/20 05:17:45;;;;;;;3.35;0.98;;;11.70;99.90;;;;;;5028750;28;20184;-72
2022/09/20 05:20:26;;;;;;;3.42;0.70;;;11.70;99.90;;;;;;5026915;28;20037;-70
2022/09/20 05:23:25;;;;;;;3.80;0.50;;;11.70;99.90;;;;;;5028289;28;20025;-71
2022/09/20 05:26:11;;;;;;;5.50;0.73;;;11.60;99.90;;;;;;5029493;28;20037;-71
2022/09/20 05:28:52;;;;;;;6.95;1.30;;;11.60;99.90;;;;;;5029468;28;20037;-71
2022/09/20 05:31:45;;;;;;;4.35;0.63;;;11.60;99.90;;;;;;5033036;28;20041;-70
2022/09/20 05:34:25;;;;;;;5.50;0.85;;;11.60;99.90;;;;;;5026295;28;20120;-71
2022/09/20 05:37:07;;;;;;;7.03;1.92;;;11.60;99.90;;;;;;5029733;28;20037;-71
2022/09/20 05:39:53;;;;;;;4.32;0.85;;;11.60;99.90;;;;;;5025574;28;20048;-71
2022/09/20 05:42:31;;;;;;;4.40;0.95;;;11.60;99.90;;;;;;5029451;28;20036;-71
2022/09/20 05:44:57;;;;;;;3.92;0.90;;;11.50;99.90;;;;;;5023598;28;20033;-71
2022/09/20 05:47:31;;;;;;;1.50;0.80;;;11.50;99.90;;;;;;5029574;28;20405;-71
2022/09/20 05:50:04;;;;;;;3.72;1.02;;;11.40;99.90;;;;;;5024224;28;20406;-70
2022/09/20 05:52:36;;;;;;;5.18;1.10;;;11.40;99.90;;;;;;5024828;28;20378;-71
2022/09/20 05:55:22;;;;;;;6.03;1.35;;;11.30;99.90;;;;;;5029839;28;20037;-71
2022/09/20 05:58:23;;;;;;;4.03;1.02;;;11.30;99.90;;;;;;5027993;28;20029;-69
2022/09/20 06:01:03;;;;;;;3.83;0.90;;;11.30;99.90;;;;;;5028290;28;20041;-71
2022/09/20 06:03:54;;;;;;;5.68;1.27;;;11.30;99.90;;;;;;5027748;28;20056;-73
2022/09/20 06:06:36;;;;;;;4.30;1.60;;;11.20;99.90;;;;;;5035502;28;20029;-70
2022/09/20 06:09:28;;;;;;;5.53;0.73;;;11.20;99.90;;;;;;5030369;28;20033;-70
2022/09/20 06:12:16;;;;;;;3.20;0.95;;;11.20;99.90;;;;;;5029031;28;20030;-71
2022/09/20 06:15:10;;;;;;;3.35;1.13;;;11.20;99.90;;;;;;5028901;28;20481;-70
2022/09/20 06:18:28;;;;;;;2.70;1.02;;;11.20;99.90;;;;;;5028974;28;20494;-71
2022/09/20 06:21:17;;;;;;;2.28;0.82;;;11.20;99.90;;;;;;5021535;28;20506;-70
2022/09/20 06:23:43;;;;;;;2.58;0.80;;;11.20;99.90;;;;;;5033218;28;20060;-72
2022/09/20 06:26:26;;;;;;;6.85;1.08;;;11.30;99.90;;;;;;5031918;28;20037;-71
2022/09/20 06:29:00;;;;;;;8.57;1.77;;;11.30;99.90;;;;;;5028879;28;20037;-71
2022/09/20 06:31:26;;;;;;;5.60;0.80;;;11.40;99.90;;;;;;5014071;28;20069;-73
2022/09/20 06:34:14;;;;;;;5.10;1.52;;;11.40;99.90;;;;;;5021412;28;20076;-71
2022/09/20 06:42:36;;;;;;;3.42;0.90;;;11.50;99.90;;;;;;5023792;28;20063;-71
2022/09/20 06:45:02;;;;;;;7.70;1.35;;;11.50;99.90;;;;;;5023611;28;20390;-71
2022/09/20 06:47:27;;;;;;;3.20;0.80;;;11.50;99.90;;;;;;5022703;28;20549;-70
2022/09/20 06:49:54;;;;;;;4.97;1.00;;;11.60;99.90;;;;;;5028438;28;20033;-72
2022/09/20 06:52:21;;;;;;;7.22;1.50;;;11.60;99.90;;;;;;5027739;28;20048;-70
2022/09/20 06:54:50;;;;;;;3.40;1.10;;;11.70;99.90;;;;;;5021770;28;20056;-72
2022/09/20 06:57:21;;;;;;;3.42;1.10;;;11.80;99.90;;;;;;5022079;28;20410;-72
2022/09/20 06:59:47;;;;;;;4.57;0.60;;;11.90;99.90;;;;;;5018500;28;20076;-72
2022/09/20 07:02:12;;;;;;;6.72;2.28;;;11.90;99.90;;;;;;5022583;28;20029;-73
2022/09/20 07:04:38;;;;;;;4.03;0.90;;;12.00;99.90;;;;;;5024157;28;20041;-74
2022/09/20 07:07:07;;;;;;;4.32;0.98;;;12.10;99.90;;;;;;5026741;28;20039;-71
2022/09/20 07:09:32;;;;;;;2.85;1.30;;;12.10;99.90;;;;;;5020811;28;20044;-73
2022/09/20 07:11:58;;;;;;;3.30;1.10;;;12.30;99.90;;;;;;5022136;28;20033;-71
2022/09/20 07:14:25;;;;;;;6.63;2.20;;;12.30;99.90;;;;;;5019202;28;20375;-72
2022/09/20 07:16:51;;;;;;;7.28;2.50;;;12.30;99.90;;;;;;5021092;28;20021;-70
2022/09/20 07:19:17;;;;;;;10.95;2.10;;;12.40;99.90;;;;;;5019024;28;20041;-72
2022/09/20 07:21:43;;;;;;;5.10;1.40;;;12.40;99.90;;;;;;5021366;28;20030;-71
2022/09/20 07:24:08;;;;;;;3.17;1.20;;;12.50;99.90;;;;;;5023385;28;20414;-72
2022/09/20 07:26:34;;;;;;;5.63;1.02;;;12.50;99.90;;;;;;5023255;28;20041;-71
2022/09/20 07:29:00;;;;;;;4.78;1.25;;;12.60;99.90;;;;;;5023480;28;20029;-71
2022/09/20 07:31:28;;;;;;;2.83;1.33;;;12.70;99.90;;;;;;5022180;28;20060;-73
2022/09/20 07:33:54;;;;;;;6.95;1.27;;;12.80;99.90;;;;;;5021942;28;20042;-71
2022/09/20 07:36:20;;;;;;;6.28;1.25;;;12.90;99.90;;;;;;5029855;28;20654;-71
2022/09/20 07:38:51;;;;;;;3.72;0.60;;;13.00;99.90;;;;;;5031532;28;20117;-71
2022/09/20 07:41:19;;;;;;;3.95;0.88;;;13.10;99.90;;;;;;5021922;28;20034;-72
2022/09/20 07:43:45;;;;;;;5.35;0.60;;;13.10;99.90;;;;;;5016417;28;20082;-72
2022/09/20 07:46:12;;;;;;;2.10;0.50;;;13.30;99.90;;;;;;5019881;28;20049;-73
2022/09/20 07:48:38;;;;;;;3.75;0.93;;;13.40;99.90;;;;;;5019443;28;20084;-72
2022/09/20 07:51:07;;;;;;;4.47;1.45;;;13.40;99.90;;;;;;5023002;28;20030;-71
2022/09/20 07:53:33;;;;;;;3.85;0.47;;;13.50;99.90;;;;;;5021725;28;20045;-74
2022/09/20 07:56:13;;;;;;;1.58;0.43;;;13.60;99.90;;;;;;5025760;28;20056;-72
2022/09/20 07:58:39;;;;;;;1.95;0.45;;;13.60;99.90;;;;;;5024840;28;20061;-74
2022/09/20 08:01:07;;;;;;;0.88;0.30;;;13.60;99.90;;;;;;5023562;28;20523;-72
2022/09/20 08:03:33;;;;;;;4.82;0.52;;;13.70;99.90;;;;;;5023533;28;20042;-72
2022/09/20 08:06:05;;;;;;;7.20;1.10;;;13.80;99.90;;;;;;5028489;28;20041;-72
2022/09/20 08:08:33;;;;;;;7.07;0.68;;;13.80;99.90;;;;;;5023496;28;20060;-72
2022/09/20 08:11:07;;;;;;;4.30;0.32;;;13.90;99.90;;;;;;5022400;28;20090;-72
2022/09/20 08:13:41;;;;;;;4.35;1.10;;;14.00;99.90;;;;;;5020239;28;20132;-72
2022/09/20 08:16:15;;;;;;;3.10;0.57;;;14.00;99.90;;;;;;5024426;28;20037;-72
2022/09/20 08:18:54;;;;;;;4.55;0.90;;;14.10;99.90;;;;;;5025117;28;20044;-77
2022/09/20 08:21:20;;;;;;;2.20;0.65;;;14.10;99.90;;;;;;5021384;28;20145;-72
2022/09/20 08:23:47;;;;;;;3.85;0.43;;;14.20;99.90;;;;;;5024413;28;20536;-74
2022/09/20 08:26:17;;;;;;;2.40;0.32;;;14.40;99.90;;;;;;5026126;28;20520;-75
2022/09/20 08:28:44;;;;;;;2.80;0.68;;;14.50;99.90;;;;;;5019354;28;20567;-72
2022/09/20 08:31:18;;;;;;;12.00;0.75;;;14.50;99.90;;;;;;5022533;28;20029;-72
2022/09/20 08:33:44;;;;;;;1.67;0.25;;;14.50;99.90;;;;;;5022332;28;20042;-72
2022/09/20 08:36:16;;;;;;;12.45;0.68;;;14.50;99.90;;;;;;5021226;28;20080;-72
2022/09/20 08:38:41;;;;;;;3.38;0.40;;;14.50;99.90;;;;;;5023292;28;21227;-71
2022/09/20 08:41:16;;;;;;;3.05;0.47;;;14.50;99.90;;;;;;5025812;28;20041;-71
2022/09/20 08:44:40;;;;;;;9.65;0.88;;;14.50;99.90;;;;;;5024688;28;20041;-72
2022/09/20 08:47:24;;;;;;;4.13;0.20;;;14.50;99.90;;;;;;4993876;28;20515;-72
2022/09/20 08:49:53;;;;;;;2.75;0.75;;;14.50;99.90;;;;;;5043682;28;20123;-72
2022/09/20 08:52:29;;;;;;;2.85;0.25;;;14.50;99.90;;;;;;5039697;28;20053;-72
2022/09/20 08:54:57;;;;;;;5.70;0.82;;;14.60;99.90;;;;;;5036550;28;20041;-72
2022/09/20 08:57:27;;;;;;;3.15;0.30;;;14.60;99.90;;;;;;5034500;28;20037;-71
2022/09/20 08:59:53;;;;;;;5.85;0.68;;;14.50;99.90;;;;;;5031220;28;20120;-71
2022/09/20 09:02:20;;;;;;;3.67;0.20;;;14.60;99.90;;;;;;5023851;28;20167;-72
2022/09/20 09:04:47;;;;;;;0.75;0.20;;;14.60;99.90;;;;;;5026064;28;20053;-74
2022/09/20 09:07:20;;;;;;;3.40;1.27;;;14.60;99.90;;;;;;5024437;28;20072;-72
2022/09/20 09:09:48;;;;;;;7.63;0.50;;;14.70;99.90;;;;;;5019284;28;20116;-73
2022/09/20 09:12:28;;;;;;;2.38;0.20;;;14.80;99.90;;;;;;5019633;28;20073;-72
2022/09/20 09:14:59;;;;;;;3.67;0.65;;;14.80;99.90;;;;;;5012191;28;20730;-72
2022/09/20 09:17:26;;;;;;;;;;;14.90;99.90;;;;;;5018875;28;20030;-71
2022/09/20 09:19:57;;;;;;;3.25;0.30;;;14.90;99.90;;;;;;5017497;28;19921;-71
2022/09/20 09:22:38;;;;;;;2.08;0.15;;;15.00;99.90;;;;;;5025703;28;20026;-72
2022/09/20 09:25:14;;;;;;;2.85;0.30;;;15.10;99.90;;;;;;5021747;28;20083;-71
2022/09/20 09:27:54;;;;;;;2.55;0.25;;;15.10;99.90;;;;;;5021895;28;20040;-72
2022/09/20 09:30:27;;;;;;;;;;;15.10;99.90;;;;;;5020788;28;20037;-72
2022/09/20 09:33:16;;;;;;;1.92;0.30;;;15.30;99.90;;;;;;5026302;28;20369;-72
2022/09/20 09:35:41;;;;;;;1.75;0.20;;;15.40;99.90;;;;;;5027489;28;20048;-72
2022/09/20 09:38:20;;;;;;;2.58;0.30;;;15.40;99.90;;;;;;5023632;28;20029;-69
2022/09/20 09:41:23;;;;;;;4.88;0.20;;;15.40;99.90;;;;;;5022546;28;20470;-73
2022/09/20 09:44:05;;;;;;;7.95;0.32;;;15.40;99.90;;;;;;5022381;28;20029;-72
2022/09/20 09:46:33;;;;;;;0.60;0.10;;;15.20;99.90;;;;;;5021085;28;20064;-72
2022/09/20 09:49:06;;;;;;;3.03;0.17;;;15.30;99.90;;;;;;5020387;28;20030;-72
2022/09/20 09:51:32;;;;;;;1.02;0.17;;;15.30;99.90;;;;;;5020459;28;20045;-74
2022/09/20 09:53:57;;;;;;;0.28;0.10;;;15.40;99.90;;;;;;5018849;28;20426;-72
2022/09/20 09:56:34;;;;;;;1.50;0.05;;;15.40;99.90;;;;;;5023956;28;20032;-70
2022/09/20 09:59:19;;;;;;;1.65;0.20;;;15.50;99.90;;;;;;5018388;28;20055;-71
2022/09/20 10:02:22;;;;;;;3.78;0.25;;;15.50;99.90;;;;;;5020316;28;20042;-72
2022/09/20 10:05:13;;;;;;;2.33;0.28;;;15.40;99.90;;;;;;5034331;28;20101;-75
2022/09/20 10:08:03;;;;;;;2.30;0.10;;;15.40;99.90;;;;;;5036083;28;20095;-73
2022/09/20 10:10:46;;;;;;;2.63;0.30;;;15.40;99.90;;;;;;5016653;28;20034;-70
2022/09/20 10:13:40;;;;;;;2.47;0.10;;;15.40;99.90;;;;;;5018046;28;20401;-74
2022/09/20 10:16:09;;;;;;;1.15;0.25;;;15.30;99.90;;;;;;5002779;28;20045;-72
2022/09/20 10:18:59;;;;;;;2.13;0.13;;;15.30;99.90;;;;;;5021765;28;20041;-72
2022/09/20 10:21:37;;;;;;;1.85;0.65;;;15.40;99.90;;;;;;5018315;28;20183;-72
2022/09/20 10:24:06;;;;;;;1.58;0.10;;;15.40;99.90;;;;;;5013240;28;20565;-72
2022/09/20 10:26:38;;;;;;;1.02;0.03;;;15.50;99.90;;;;;;5018375;28;20044;-71
2022/09/20 10:29:09;;;;;;;1.15;0.30;;;15.60;99.90;;;;;;5019790;28;20041;-72
2022/09/20 10:31:40;;;;;;;1.23;0.40;;;15.60;99.90;;;;;;5021161;28;20457;-73
2022/09/20 10:34:37;;;;;;;3.65;0.10;;;15.80;99.90;;;;;;5017891;28;20437;-74
2022/09/20 10:37:13;;;;;;;1.63;0.25;;;15.80;99.90;;;;;;5016341;28;20413;-72
2022/09/20 10:39:42;;;;;;;2.05;0.10;;;15.90;99.90;;;;;;5019091;28;20749;-71
2022/09/20 10:45:48;;;;;;;11.02;0.80;;;16.10;99.90;;;;;;5019264;28;20879;-71
2022/09/20 10:48:47;;;;;;;2.92;0.20;;;16.20;99.90;;;;;;5013086;28;20045;-72
2022/09/20 10:51:50;;;;;;;2.15;0.50;;;16.40;99.90;;;;;;5021779;28;20122;-72
2022/09/20 10:54:37;;;;;;;1.80;0.20;;;16.50;99.90;;;;;;5013762;28;20125;-74
2022/09/20 10:57:24;;;;;;;3.17;0.10;;;16.50;99.90;;;;;;5021968;28;20042;-72
2022/09/20 11:00:03;;;;;;;3.33;0.13;;;16.50;99.90;;;;;;5011440;28;20043;-72
2022/09/20 11:02:59;;;;;;;1.85;0.10;;;16.40;99.90;;;;;;5018279;28;20088;-72
2022/09/20 11:05:54;;;;;;;2.15;0.17;;;16.40;99.90;;;;;;5020472;28;20037;-70
2022/09/20 11:08:25;;;;;;;7.95;0.30;;;16.50;99.90;;;;;;5025369;28;20694;-72
2022/09/20 11:11:12;;;;;;;0.20;0.00;;;16.60;99.90;;;;;;5029236;28;20037;-73
2022/09/20 11:13:45;;;;;;;3.65;0.65;;;16.70;99.90;;;;;;5026100;28;20038;-73
2022/09/20 11:16:22;;;;;;;4.28;0.47;;;16.60;99.90;;;;;;5022883;28;20053;-69
2022/09/20 11:18:49;;;;;;;5.45;0.30;;;16.60;99.90;;;;;;5021509;28;20383;-71
2022/09/20 11:21:32;;;;;;;0.15;0.10;;;16.50;99.90;;;;;;5030505;28;20037;-72
2022/09/20 11:24:26;;;;;;;0.35;0.00;;;16.70;99.90;;;;;;5033451;28;20124;-71
2022/09/20 11:26:57;;;;;;;4.43;0.17;;;16.70;99.90;;;;;;5021903;28;20034;-73
2022/09/20 11:29:42;;;;;;;2.20;0.10;;;16.70;99.90;;;;;;5023263;28;20120;-71
2022/09/20 11:32:17;;;;;;;5.82;0.93;;;16.80;99.90;;;;;;5022180;28;20029;-72
2022/09/20 11:35:00;;;;;;;1.35;0.13;;;16.80;99.90;;;;;;5019624;28;20401;-72
2022/09/20 11:37:32;;;;;;;2.20;0.55;;;16.90;99.90;;;;;;5023008;28;20528;-71
2022/09/20 11:40:04;;;;;;;4.95;0.65;;;16.90;99.90;;;;;;5019425;28;20111;-70
2022/09/20 11:42:38;;;;;;;2.25;0.20;;;16.80;99.90;;;;;;5022225;28;20688;-72
2022/09/20 11:45:04;;;;;;;3.22;0.20;;;16.70;99.90;;;;;;5028419;28;20025;-74
2022/09/20 11:47:40;;;;;;;2.95;0.30;;;16.70;99.90;;;;;;5025597;28;20057;-71
2022/09/20 11:50:31;;;;;;;1.60;0.20;;;16.70;99.90;;;;;;5028509;28;20114;-70
2022/09/20 11:53:32;;;;;;;0.73;0.10;;;16.80;99.90;;;;;;5024436;28;20103;-71
2022/09/20 11:56:11;;;;;;;2.17;0.40;;;16.80;99.90;;;;;;5024780;28;20034;-72
2022/09/20 11:58:51;;;;;;;2.58;0.20;;;16.90;99.90;;;;;;5023310;28;20087;-72
2022/09/20 12:01:38;;;;;;;2.65;0.20;;;16.90;99.90;;;;;;5028203;28;20072;-72
2022/09/20 12:04:25;;;;;;;3.72;0.32;;;16.90;99.90;;;;;;5022726;28;20038;-71
2022/09/20 12:07:26;;;;;;;1.48;0.40;;;17.00;99.90;;;;;;5028132;28;20493;-72
2022/09/20 12:09:56;;;;;;;1.35;0.52;;;17.10;99.90;;;;;;5031295;28;20440;-71
2022/09/20 12:12:42;;;;;;;0.90;0.05;;;17.00;99.90;;;;;;5034184;28;20658;-72
2022/09/20 12:15:22;;;;;;;5.70;0.70;;;17.10;99.90;;;;;;5026527;28;20037;-71
2022/09/20 12:17:51;;;;;;;5.78;1.02;;;17.00;99.90;;;;;;5027045;28;20042;-71
2022/09/20 12:20:33;;;;;;;1.45;0.25;;;17.10;99.90;;;;;;5030572;28;20091;-70
2022/09/20 12:23:36;;;;;;;1.58;0.10;;;17.00;99.90;;;;;;5030010;28;20041;-70
2022/09/20 12:26:17;;;;;;;1.48;0.10;;;17.00;99.90;;;;;;5032402;28;20063;-75
2022/09/20 12:28:48;;;;;;;9.68;0.95;;;16.90;99.90;;;;;;5030943;28;20053;-71
2022/09/20 12:31:17;;;;;;;4.07;0.30;;;17.00;99.90;;;;;;5045415;28;20025;-71
2022/09/20 12:34:14;;;;;;;1.23;0.20;;;16.90;99.90;;;;;;5044455;28;20089;-70
2022/09/20 12:36:52;;;;;;;3.83;0.20;;;16.90;99.90;;;;;;5041861;28;20037;-70
2022/09/20 12:39:26;;;;;;;2.20;0.28;;;17.00;99.90;;;;;;5030959;28;20514;-71
2022/09/20 12:41:57;;;;;;;1.27;0.20;;;17.10;99.90;;;;;;5040617;28;20076;-72
2022/09/20 12:44:46;;;;;;;1.75;0.40;;;17.00;99.90;;;;;;5047024;28;20049;-71
2022/09/20 12:47:12;;;;;;;4.47;0.30;;;16.90;99.90;;;;;;5041000;28;20042;-73
2022/09/20 12:52:52;;;;;;;0.73;0.10;;;16.80;99.90;;;;;;5022893;28;20107;-70
2022/09/20 12:55:45;;;;;;;1.63;0.20;;;16.80;99.90;;;;;;5024129;28;20038;-71
2022/09/20 12:58:14;;;;;;;1.88;0.20;;;16.90;99.90;;;;;;5025739;28;20099;-71
2022/09/20 13:00:45;;;;;;;2.00;0.28;;;17.20;99.90;;;;;;5021443;28;20049;-70
2022/09/20 13:03:35;;;;;;;5.70;0.20;;;17.40;99.90;;;;;;5025265;28;20037;-71
2022/09/20 13:06:07;;;;;;;8.50;0.10;;;17.50;99.90;;;;;;5015188;28;20042;-71
2022/09/20 13:09:03;;;;;;;2.80;0.20;;;17.60;99.90;;;;;;5025196;28;20041;-71
2022/09/20 13:11:35;;;;;;;3.60;0.82;;;17.50;99.60;;;;;;5030123;28;20025;-72
2022/09/20 13:14:07;;;;;;;3.20;0.32;;;17.40;99.50;;;;;;5036304;28;20576;-70
2022/09/20 13:16:35;;;;;;;0.40;0.10;;;17.40;98.60;;;;;;5041419;28;20018;-71
2022/09/20 13:19:15;;;;;;;1.08;0.10;;;17.20;98.80;;;;;;5042009;28;20034;-75
2022/09/20 13:22:11;;;;;;;1.90;0.10;;;17.10;98.90;;;;;;5043054;28;20067;-71
2022/09/20 13:24:40;;;;;;;2.30;0.25;;;16.90;99.40;;;;;;5003500;28;20038;-72
2022/09/20 13:27:33;;;;;;;3.40;0.20;;;16.70;99.60;;;;;;5029421;28;20401;-71
2022/09/20 13:30:21;;;;;;;2.03;0.20;;;16.60;99.90;;;;;;5001737;28;20048;-68
2022/09/20 13:32:48;;;;;;;2.03;0.22;;;16.60;99.90;;;;;;5026410;28;20033;-72
2022/09/20 13:35:20;;;;;;;0.68;0.30;;;16.40;99.90;;;;;;5026696;28;20064;-70
2022/09/20 13:37:59;;;;;;;1.38;0.25;;;16.40;99.90;;;;;;5024420;28;20545;-71
2022/09/20 13:40:56;;;;;;;1.55;0.10;;;16.40;99.90;;;;;;5025132;28;20033;-71
2022/09/20 13:43:32;;;;;;;2.00;0.10;;;16.40;99.90;;;;;;5020709;28;20409;-70
2022/09/20 13:46:05;;;;;;;0.80;0.00;;;16.40;99.90;;;;;;5027621;28;20520;-72
2022/09/20 13:48:31;;;;;;;4.65;0.17;;;16.40;99.90;;;;;;5021550;28;20339;-69
2022/09/20 13:50:57;;;;;;;5.57;0.30;;;16.50;99.90;;;;;;5021438;28;20467;-70
2022/09/20 13:53:25;;;;;;;4.78;0.20;;;16.60;99.90;;;;;;5024730;28;20117;-72
2022/09/20 13:55:54;;;;;;;2.25;0.20;;;16.60;99.90;;;;;;5020536;28;20092;-70
2022/09/20 13:58:30;;;;;;;13.43;0.47;;;16.70;99.90;;;;;;5022226;28;20056;-70